createdAt,value
2022-10-25T00:02:59.531Z,27.90
2022-10-25T00:06:05.216Z,27.90
2022-10-25T00:09:11.346Z,30.00
2022-10-25T00:15:21.012Z,28.10
2022-10-25T00:18:27.175Z,27.50
2022-10-25T00:24:36.739Z,26.40
2022-10-25T00:27:42.175Z,26.60
2022-10-25T00:30:47.577Z,28.10
2022-10-25T00:33:53.086Z,24.30
2022-10-25T00:36:58.629Z,32.50
2022-10-25T00:40:04.478Z,29.20
2022-10-25T00:43:11.628Z,28.60
2022-10-25T00:46:24.057Z,29.10
2022-10-25T00:49:29.736Z,28.10
2022-10-25T00:52:40.407Z,27.40
2022-10-25T00:55:53.049Z,29.30
2022-10-25T00:59:03.588Z,31.10
2022-10-25T01:02:09.578Z,29.70
2022-10-25T01:08:21.466Z,29.00
2022-10-25T01:11:26.913Z,25.60
2022-10-25T01:14:36.397Z,32.00
2022-10-25T01:17:51.853Z,29.90
2022-10-25T01:21:24.112Z,28.60
2022-10-25T01:25:04.357Z,28.10
2022-10-25T01:28:13.817Z,26.70
2022-10-25T01:31:28.375Z,25.40
2022-10-25T01:34:42.323Z,30.20
2022-10-25T01:38:04.506Z,28.30
2022-10-25T01:41:21.070Z,27.50
2022-10-25T01:44:45.105Z,28.90
2022-10-25T01:47:55.516Z,30.30
2022-10-25T01:51:11.018Z,28.00
2022-10-25T01:54:25.090Z,26.80
2022-10-25T01:57:54.558Z,26.60
2022-10-25T02:01:11.921Z,24.90
2022-10-25T02:04:25.831Z,25.70
2022-10-25T02:07:38.560Z,27.30
2022-10-25T02:10:49.379Z,28.70
2022-10-25T02:14:08.283Z,25.70
2022-10-25T02:17:19.916Z,27.20
2022-10-25T02:20:29.556Z,24.30
2022-10-25T02:23:38.039Z,26.20
2022-10-25T02:26:45.127Z,25.80
2022-10-25T02:29:51.713Z,24.70
2022-10-25T02:32:57.248Z,25.20
2022-10-25T02:36:13.991Z,23.10
2022-10-25T02:39:21.485Z,24.80
2022-10-25T02:42:27.003Z,23.50
2022-10-25T02:45:32.406Z,23.50
2022-10-25T02:48:38.466Z,22.50
2022-10-25T02:51:44.003Z,22.50
2022-10-25T02:54:49.460Z,21.80
2022-10-25T02:57:54.915Z,20.80
2022-10-25T03:01:01.323Z,22.80
2022-10-25T03:04:07.114Z,23.20
2022-10-25T03:07:12.627Z,25.30
2022-10-25T03:10:18.274Z,22.40
2022-10-25T03:13:23.828Z,23.60
2022-10-25T03:16:29.276Z,23.80
2022-10-25T03:19:34.726Z,22.90
2022-10-25T03:22:40.272Z,21.40
2022-10-25T03:25:46.161Z,21.40
2022-10-25T03:28:52.772Z,22.40
2022-10-25T03:31:58.176Z,25.70
2022-10-25T03:35:03.700Z,27.30
2022-10-25T03:38:09.400Z,25.60
2022-10-25T03:41:14.900Z,24.80
2022-10-25T03:44:20.374Z,24.00
2022-10-25T03:47:26.112Z,19.70
2022-10-25T03:50:31.644Z,26.20
2022-10-25T03:53:37.099Z,22.30
2022-10-25T03:56:42.608Z,27.10
2022-10-25T03:59:48.022Z,23.50
2022-10-25T04:03:01.820Z,21.90
2022-10-25T04:06:08.644Z,23.30
2022-10-25T04:09:14.267Z,24.20
2022-10-25T04:12:19.737Z,23.30
2022-10-25T04:15:25.710Z,24.30
2022-10-25T04:18:31.222Z,21.80
2022-10-25T04:21:36.669Z,20.40
2022-10-25T04:24:42.320Z,23.30
2022-10-25T04:27:47.991Z,23.50
2022-10-25T04:30:54.144Z,23.50
2022-10-25T04:33:59.790Z,23.10
2022-10-25T04:37:05.339Z,22.60
2022-10-25T04:40:13.177Z,21.60
2022-10-25T04:43:18.690Z,24.30
2022-10-25T04:46:24.649Z,22.90
2022-10-25T04:49:30.095Z,26.50
2022-10-25T04:52:35.697Z,23.90
2022-10-25T04:55:41.157Z,22.60
2022-10-25T04:58:46.851Z,22.10
2022-10-25T05:05:02.655Z,25.80
2022-10-25T05:08:08.397Z,21.20
2022-10-25T05:11:15.355Z,20.40
2022-10-25T05:14:21.045Z,24.70
2022-10-25T05:17:26.495Z,21.20
2022-10-25T05:20:32.043Z,20.40
2022-10-25T05:23:37.721Z,22.30
2022-10-25T05:26:43.244Z,20.20
2022-10-25T05:29:49.348Z,21.80
2022-10-25T05:35:59.789Z,23.80
2022-10-25T05:39:05.237Z,21.00
2022-10-25T05:42:10.670Z,21.70
2022-10-25T05:45:16.557Z,23.80
2022-10-25T05:48:22.089Z,19.60
2022-10-25T05:51:37.094Z,21.50
2022-10-25T05:54:42.918Z,25.00
2022-10-25T05:57:53.176Z,20.50
2022-10-25T06:01:02.024Z,21.40
2022-10-25T06:04:08.829Z,25.10
2022-10-25T06:07:14.330Z,21.60
2022-10-25T06:10:19.884Z,23.00
2022-10-25T06:13:25.327Z,22.20
2022-10-25T06:16:31.159Z,25.30
2022-10-25T06:19:36.737Z,20.40
2022-10-25T06:22:42.283Z,21.90
2022-10-25T06:25:47.832Z,28.60
2022-10-25T06:28:57.008Z,22.10
2022-10-25T06:32:02.516Z,24.20
2022-10-25T06:35:09.632Z,23.90
2022-10-25T06:38:15.459Z,25.20
2022-10-25T06:41:22.466Z,22.80
2022-10-25T06:44:27.988Z,24.90
2022-10-25T06:47:33.414Z,28.30
2022-10-25T06:50:38.883Z,27.20
2022-10-25T06:53:44.551Z,26.00
2022-10-25T06:56:50.143Z,22.60
2022-10-25T06:59:55.757Z,21.00
2022-10-25T07:03:01.998Z,19.60
2022-10-25T07:06:09.664Z,21.30
2022-10-25T07:09:15.790Z,20.60
2022-10-25T07:15:25.221Z,20.50
2022-10-25T07:18:31.417Z,19.10
2022-10-25T07:24:40.955Z,19.60
2022-10-25T07:27:46.690Z,22.80
2022-10-25T07:30:52.599Z,18.70
2022-10-25T07:34:01.045Z,19.70
2022-10-25T07:37:07.245Z,20.40
2022-10-25T07:40:13.938Z,19.80
2022-10-25T07:43:19.376Z,18.30
2022-10-25T07:46:24.919Z,23.00
2022-10-25T07:49:30.469Z,22.80
2022-10-25T07:52:35.921Z,23.10
2022-10-25T07:55:41.567Z,22.90
2022-10-25T07:58:47.322Z,22.90
2022-10-25T08:01:52.941Z,20.00
2022-10-25T08:04:58.624Z,19.50
2022-10-25T08:08:05.421Z,17.10
2022-10-25T08:11:10.953Z,16.00
2022-10-25T08:14:16.525Z,17.40
2022-10-25T08:17:22.051Z,16.10
2022-10-25T08:20:49.130Z,15.10
2022-10-25T08:23:53.530Z,17.00
2022-10-25T08:26:58.962Z,16.20
2022-10-25T08:30:04.732Z,17.00
2022-10-25T08:33:11.792Z,16.60
2022-10-25T08:36:17.492Z,18.30
2022-10-25T08:39:23.015Z,16.50
2022-10-25T08:42:36.348Z,15.00
2022-10-25T08:45:52.689Z,14.20
2022-10-25T08:49:07.934Z,14.00
2022-10-25T08:52:24.331Z,14.00
2022-10-25T08:55:33.741Z,15.50
2022-10-25T08:58:46.388Z,14.20
2022-10-25T09:01:57.250Z,13.40
2022-10-25T09:05:03.014Z,12.80
2022-10-25T09:08:24.436Z,15.30
2022-10-25T09:11:49.545Z,14.20
2022-10-25T09:15:02.997Z,16.30
2022-10-25T09:18:17.576Z,16.60
2022-10-25T09:21:29.977Z,23.90
2022-10-25T09:24:50.866Z,28.60
2022-10-25T09:28:03.800Z,14.30
2022-10-25T09:31:16.006Z,20.40
2022-10-25T09:34:23.607Z,14.10
2022-10-25T09:37:34.504Z,12.90
2022-10-25T09:40:48.030Z,9.00
2022-10-25T09:43:59.315Z,10.50
2022-10-25T09:47:16.016Z,10.70
2022-10-25T09:50:28.957Z,13.80
2022-10-25T09:53:40.321Z,18.00
2022-10-25T09:56:46.054Z,20.50
2022-10-25T09:59:52.639Z,35.60
2022-10-25T10:02:58.468Z,33.80
2022-10-25T10:09:13.205Z,13.10
2022-10-25T10:12:24.553Z,14.00
2022-10-25T10:15:32.666Z,15.40
2022-10-25T10:18:40.605Z,11.70
2022-10-25T10:21:48.254Z,11.10
2022-10-25T10:25:02.365Z,13.20
2022-10-25T10:28:15.285Z,15.40
2022-10-25T10:31:21.302Z,14.00
2022-10-25T10:40:37.232Z,11.50
2022-10-25T10:43:43.496Z,13.60
2022-10-25T10:46:49.476Z,15.30
2022-10-25T10:53:03.116Z,13.80
2022-10-25T10:56:09.885Z,12.40
2022-10-25T10:59:30.790Z,14.30
2022-10-25T11:02:41.347Z,10.70
2022-10-25T11:05:56.049Z,13.00
2022-10-25T11:09:17.049Z,12.30
2022-10-25T11:12:22.557Z,14.50
2022-10-25T11:15:30.128Z,10.90
2022-10-25T11:18:51.221Z,12.00
2022-10-25T11:22:18.565Z,11.90
2022-10-25T11:25:34.353Z,9.50
2022-10-25T11:31:59.380Z,10.70
2022-10-25T11:35:16.818Z,9.50
2022-10-25T11:38:34.416Z,8.20
2022-10-25T11:41:48.182Z,10.80
2022-10-25T11:45:14.904Z,9.00
2022-10-25T11:48:49.195Z,13.50
2022-10-25T11:52:09.363Z,11.30
2022-10-25T11:55:28.511Z,10.70
2022-10-25T11:58:42.364Z,10.00
2022-10-25T12:02:08.999Z,9.00
2022-10-25T12:05:26.745Z,8.80
2022-10-25T12:08:47.072Z,9.60
2022-10-25T12:11:56.984Z,12.40
2022-10-25T12:15:04.196Z,9.20
2022-10-25T12:18:15.498Z,11.40
2022-10-25T12:21:27.693Z,9.20
2022-10-25T12:24:40.610Z,8.20
2022-10-25T12:27:55.795Z,8.70
2022-10-25T12:31:08.299Z,7.70
2022-10-25T12:34:20.806Z,10.20
2022-10-25T12:37:34.318Z,10.40
2022-10-25T12:40:45.280Z,7.70
2022-10-25T12:44:06.887Z,8.00
2022-10-25T12:47:40.779Z,16.40
2022-10-25T12:51:15.338Z,9.20
2022-10-25T12:54:40.473Z,7.20
2022-10-25T12:57:56.306Z,21.10
2022-10-25T13:01:22.892Z,9.90
2022-10-25T13:04:51.699Z,15.70
2022-10-25T13:08:01.684Z,14.30
2022-10-25T13:11:09.712Z,12.20
2022-10-25T13:14:27.703Z,9.20
2022-10-25T13:18:03.989Z,13.00
2022-10-25T13:21:11.582Z,11.70
2022-10-25T13:24:40.505Z,16.40
2022-10-25T13:28:32.777Z,13.70
2022-10-25T13:32:10.245Z,11.10
2022-10-25T13:35:50.987Z,8.60
2022-10-25T13:39:07.074Z,13.30
2022-10-25T13:42:26.184Z,13.00
2022-10-25T13:45:39.748Z,12.90
2022-10-25T13:48:45.949Z,9.70
2022-10-25T13:51:55.244Z,9.00
2022-10-25T13:55:02.788Z,8.40
2022-10-25T13:58:41.552Z,7.90
2022-10-25T14:01:59.287Z,8.20
2022-10-25T14:05:05.089Z,8.70
2022-10-25T14:08:23.041Z,8.70
2022-10-25T14:11:37.626Z,7.50
2022-10-25T14:14:54.211Z,10.20
2022-10-25T14:18:06.342Z,14.20
2022-10-25T14:21:14.174Z,13.60
2022-10-25T14:24:20.738Z,8.00
2022-10-25T14:27:35.660Z,10.80
2022-10-25T14:30:45.412Z,12.20
2022-10-25T14:33:56.192Z,10.50
2022-10-25T14:37:01.832Z,10.20
2022-10-25T14:40:20.960Z,12.60
2022-10-25T14:43:29.629Z,12.70
2022-10-25T14:46:35.070Z,11.40
2022-10-25T14:49:40.619Z,13.30
2022-10-25T14:52:49.200Z,11.50
2022-10-25T14:55:57.405Z,13.30
2022-10-25T14:59:04.421Z,12.00
2022-10-25T15:02:20.122Z,12.30
2022-10-25T15:08:30.886Z,10.30
2022-10-25T15:14:41.729Z,9.90
2022-10-25T15:17:54.120Z,12.00
2022-10-25T15:21:09.247Z,22.80
2022-10-25T15:24:21.817Z,16.60
2022-10-25T15:27:35.790Z,21.00
2022-10-25T15:30:43.793Z,15.20
2022-10-25T15:33:49.613Z,16.50
2022-10-25T15:36:55.471Z,25.40
2022-10-25T15:40:01.248Z,26.20
2022-10-25T15:43:06.774Z,14.40
2022-10-25T15:46:23.629Z,14.50
2022-10-25T15:49:29.137Z,15.60
2022-10-25T15:52:35.099Z,13.00
2022-10-25T15:58:44.560Z,16.30
2022-10-25T16:01:53.373Z,13.80
2022-10-25T16:04:58.933Z,10.50
2022-10-25T16:08:04.704Z,12.80
2022-10-25T16:11:16.343Z,13.40
2022-10-25T16:14:25.353Z,16.80
2022-10-25T16:17:30.858Z,16.30
2022-10-25T16:20:36.650Z,12.60
2022-10-25T16:23:42.163Z,15.00
2022-10-25T16:26:50.170Z,11.60
2022-10-25T16:29:55.621Z,13.50
2022-10-25T16:33:01.064Z,13.10
2022-10-25T16:36:07.846Z,14.50
2022-10-25T16:39:14.269Z,25.80
2022-10-25T16:42:31.276Z,20.30
2022-10-25T16:45:38.653Z,14.20
2022-10-25T16:48:44.086Z,15.30
2022-10-25T16:51:51.714Z,13.20
2022-10-25T16:54:57.133Z,17.60
2022-10-25T16:58:03.622Z,18.30
2022-10-25T17:01:19.839Z,15.60
2022-10-25T17:04:26.439Z,14.90
2022-10-25T17:07:32.269Z,15.50
2022-10-25T17:10:42.461Z,16.50
2022-10-25T17:13:50.788Z,12.60
2022-10-25T17:17:00.787Z,15.30
2022-10-25T17:20:10.872Z,30.40
2022-10-25T17:23:16.319Z,27.80
2022-10-25T17:26:21.883Z,27.50
2022-10-25T17:29:27.751Z,21.10
2022-10-25T17:32:33.209Z,15.00
2022-10-25T17:35:43.394Z,14.60
2022-10-25T17:38:50.792Z,15.50
2022-10-25T17:41:56.505Z,13.30
2022-10-25T17:45:01.936Z,12.70
2022-10-25T17:48:08.217Z,15.60
2022-10-25T17:51:15.012Z,13.70
2022-10-25T17:54:20.485Z,14.70
2022-10-25T17:57:26.095Z,13.20
2022-10-25T18:00:31.547Z,12.40
2022-10-25T18:03:38.056Z,13.40
2022-10-25T18:06:43.561Z,13.70
2022-10-25T18:09:49.008Z,12.60
2022-10-25T18:12:54.477Z,15.00
2022-10-25T18:19:16.256Z,16.00
2022-10-25T18:22:21.768Z,18.00
2022-10-25T18:25:27.304Z,17.70
2022-10-25T18:28:35.237Z,15.20
2022-10-25T18:31:40.759Z,14.80
2022-10-25T18:34:46.309Z,12.10
2022-10-25T18:37:51.856Z,11.70
2022-10-25T18:40:57.653Z,11.70
2022-10-25T18:44:03.678Z,14.10
2022-10-25T18:47:09.326Z,15.00
2022-10-25T18:50:15.078Z,13.10
2022-10-25T18:53:20.857Z,17.60
2022-10-25T18:56:27.268Z,14.30
2022-10-25T18:59:33.027Z,18.50
2022-10-25T19:02:38.489Z,18.20
2022-10-25T19:05:44.818Z,14.70
2022-10-25T19:11:54.949Z,15.20
2022-10-25T19:15:00.500Z,15.30
2022-10-25T19:18:06.035Z,17.90
2022-10-25T19:21:13.477Z,14.20
2022-10-25T19:24:18.888Z,13.30
2022-10-25T19:27:24.540Z,14.40
2022-10-25T19:30:32.223Z,14.30
2022-10-25T19:33:40.105Z,15.20
2022-10-25T19:36:45.592Z,14.40
2022-10-25T19:39:53.327Z,12.20
2022-10-25T19:43:01.196Z,16.60
2022-10-25T19:46:08.225Z,16.70
2022-10-25T19:49:14.101Z,14.10
2022-10-25T19:52:20.046Z,14.70
2022-10-25T19:55:25.547Z,12.30
2022-10-25T19:58:31.196Z,13.40
2022-10-25T20:01:36.837Z,14.20
2022-10-25T20:04:42.398Z,16.80
2022-10-25T20:07:48.363Z,11.10
2022-10-25T20:13:59.288Z,14.90
2022-10-25T20:17:05.006Z,20.00
2022-10-25T20:20:12.597Z,11.60
2022-10-25T20:23:18.562Z,11.20
2022-10-25T20:26:25.786Z,14.80
2022-10-25T20:29:31.301Z,18.20
2022-10-25T20:32:36.838Z,13.70
2022-10-25T20:35:44.549Z,10.60
2022-10-25T20:38:50.266Z,10.80
2022-10-25T20:41:55.754Z,11.60
2022-10-25T20:45:01.300Z,12.20
2022-10-25T20:48:07.389Z,13.50
2022-10-25T20:51:15.427Z,13.60
2022-10-25T20:54:21.327Z,13.40
2022-10-25T20:57:26.778Z,11.50
2022-10-25T21:00:33.245Z,15.90
2022-10-25T21:03:39.270Z,11.00
2022-10-25T21:06:44.692Z,17.30
2022-10-25T21:09:50.202Z,14.10
2022-10-25T21:12:55.650Z,11.40
2022-10-25T21:16:05.294Z,14.90
2022-10-25T21:19:10.992Z,12.60
2022-10-25T21:22:16.495Z,15.50
2022-10-25T21:25:21.942Z,14.60
2022-10-25T21:28:28.004Z,14.90
2022-10-25T21:31:33.656Z,12.80
2022-10-25T21:34:39.205Z,13.80
2022-10-25T21:37:48.277Z,10.30
2022-10-25T21:40:54.913Z,13.30
2022-10-25T21:44:00.591Z,13.30
2022-10-25T21:47:06.321Z,15.20
2022-10-25T21:50:12.734Z,10.40
2022-10-25T21:53:18.646Z,15.30
2022-10-25T21:56:30.709Z,14.00
2022-10-25T21:59:37.220Z,15.80
2022-10-25T22:05:53.017Z,13.30
2022-10-25T22:08:58.889Z,12.90
2022-10-25T22:12:05.169Z,11.60
2022-10-25T22:18:15.150Z,12.80
2022-10-25T22:21:21.086Z,14.30
2022-10-25T22:24:26.621Z,19.30
2022-10-25T22:27:32.182Z,12.80
2022-10-25T22:30:37.735Z,13.10
2022-10-25T22:33:44.126Z,12.00
2022-10-25T22:36:49.652Z,11.80
2022-10-25T22:39:55.100Z,16.00
2022-10-25T22:43:03.350Z,12.40
2022-10-25T22:46:11.598Z,11.50
2022-10-25T22:49:19.044Z,15.10
2022-10-25T22:52:24.567Z,14.10
2022-10-25T22:55:30.013Z,13.80
2022-10-25T22:58:38.256Z,17.80
2022-10-25T23:01:43.776Z,10.40
2022-10-25T23:04:49.208Z,17.50
2022-10-25T23:07:55.693Z,10.60
2022-10-25T23:11:03.125Z,16.60
2022-10-25T23:14:13.466Z,13.10
2022-10-25T23:17:22.088Z,15.20
2022-10-25T23:20:27.485Z,12.30
2022-10-25T23:23:38.834Z,10.40
2022-10-25T23:26:44.560Z,13.50
2022-10-25T23:29:49.955Z,14.90
2022-10-25T23:32:55.450Z,10.90
2022-10-25T23:36:05.357Z,15.10
2022-10-25T23:39:11.058Z,14.70
2022-10-25T23:42:16.604Z,14.30
2022-10-25T23:45:22.050Z,15.20
2022-10-25T23:48:28.173Z,16.60
2022-10-25T23:51:33.661Z,15.60
2022-10-25T23:54:39.073Z,15.60
2022-10-25T23:57:44.556Z,16.00
